Time;durP1;ratioP1;P1;durP2;ratioP2;P2;SDS_P1;SDS_P2;PMS_P1;PMS_P2;Temp;Humidity;BMP_temperature;BMP_pressure;BME280_temperature;BME280_humidity;BME280_pressure;Samples;Min_cycle;Max_cycle;Signal;HPM_P1;HPM_P2
2022/01/07 00:00:27;;;;;;;24.80;12.23;;;;;;;6.63;99.39;99136.66;4939793;29;20467;-86
2022/01/07 00:02:55;;;;;;;26.23;13.20;;;;;;;6.04;99.11;99061.34;4956290;29;20442;-83
2022/01/07 00:05:25;;;;;;;35.90;20.13;;;;;;;7.02;98.91;99207.63;4958929;29;20404;-85
2022/01/07 00:07:51;;;;;;;28.20;13.93;;;;;;;4.65;98.76;98828.38;4940420;29;20439;-84
2022/01/07 00:10:22;;;;;;;23.47;11.17;;;;;;;6.90;99.21;99211.97;4957428;29;20404;-85
2022/01/07 00:12:49;;;;;;;25.10;12.07;;;;;;;4.92;99.03;98883.34;4956443;29;20168;-83
2022/01/07 00:15:16;;;;;;;26.17;13.20;;;;;;;6.87;98.62;99213.44;4939767;29;20427;-83
2022/01/07 00:17:42;;;;;;;20.83;10.33;;;;;;;5.17;98.23;98926.63;4955907;29;20436;-84
2022/01/07 00:20:09;;;;;;;20.73;10.93;;;;;;;6.64;98.04;99176.13;4956081;29;20506;-84
2022/01/07 00:22:37;;;;;;;25.87;12.50;;;;;;;6.89;98.62;99227.88;4958583;29;20219;-84
2022/01/07 00:25:04;;;;;;;20.30;10.30;;;;;;;6.83;97.71;99226.66;4956602;29;20907;-85
2022/01/07 00:27:29;;;;;;;24.70;11.80;;;;;;;6.92;97.83;99234.72;4956527;29;20431;-85
2022/01/07 00:29:56;;;;;;;20.57;11.67;;;;;;;6.78;98.15;99243.16;4938322;29;20420;-84
2022/01/07 00:32:21;;;;;;;26.13;11.17;;;;;;;6.69;98.65;99250.16;4954518;29;20192;-85
2022/01/07 00:34:47;;;;;;;21.60;11.03;;;;;;;6.59;98.82;99245.41;4955689;29;20428;-82
2022/01/07 00:37:12;;;;;;;20.03;10.80;;;;;;;6.09;99.05;99169.63;4954520;29;20184;-84
2022/01/07 00:39:38;;;;;;;20.07;10.33;;;;;;;6.50;99.43;99251.66;4956192;29;20196;-84
2022/01/07 00:42:04;;;;;;;23.50;10.13;;;;;;;5.44;98.52;99062.88;4955787;29;20232;-84
2022/01/07 00:44:30;;;;;;;20.77;11.00;;;;;;;6.17;98.65;99186.88;4956235;29;20177;-83
2022/01/07 00:46:56;;;;;;;16.93;8.37;;;;;;;4.81;99.01;98969.66;4956793;29;20185;-84
2022/01/07 00:49:22;;;;;;;20.97;10.67;;;;;;;5.08;99.35;99022.28;4954482;29;20425;-85
2022/01/07 00:51:51;;;;;;;24.23;12.30;;;;;;;5.75;99.05;99154.22;4957966;29;20169;-83
2022/01/07 00:54:17;;;;;;;21.00;10.50;;;;;;;6.46;99.68;99272.38;4941829;29;20963;-83
2022/01/07 00:56:43;;;;;;;16.70;7.17;;;;;;;6.04;99.70;99212.09;4955921;29;20428;-83
2022/01/07 00:59:10;;;;;;;22.00;11.87;;;;;;;5.69;99.88;99156.38;4957756;28;20436;-84
2022/01/07 01:01:38;;;;;;;20.97;10.93;;;;;;;4.05;99.25;98885.78;4959930;29;20260;-82
2022/01/07 01:04:04;;;;;;;15.83;7.90;;;;;;;5.80;99.90;99180.47;4958964;29;20878;-84
2022/01/07 01:06:29;;;;;;;18.00;10.27;;;;;;;6.23;99.76;99257.63;4959961;29;20400;-84
2022/01/07 01:08:59;;;;;;;24.40;10.53;;;;;;;5.59;99.91;99154.13;4958675;29;20184;-83
2022/01/07 01:11:24;;;;;;;19.63;10.50;;;;;;;4.92;100.00;99089.88;4960606;29;20239;-84
2022/01/07 01:13:56;;;;;;;21.27;10.93;;;;;;;6.16;100.00;99265.56;4960257;29;20499;-83
2022/01/07 01:16:24;;;;;;;21.53;10.30;;;;;;;5.05;99.93;99071.44;4926622;29;20607;-84
2022/01/07 01:18:50;;;;;;;20.53;10.30;;;;;;;3.10;98.54;98727.28;4960334;29;20408;-83
2022/01/07 01:21:15;;;;;;;21.77;11.47;;;;;;;4.80;98.96;99028.97;4959895;29;20982;-84
2022/01/07 01:23:45;;;;;;;22.00;10.13;;;;;;;5.03;98.89;99078.84;4958994;29;20184;-85
2022/01/07 01:26:12;;;;;;;18.37;9.90;;;;;;;5.87;99.75;99228.69;4957801;29;20688;-83
2022/01/07 01:28:37;;;;;;;24.53;12.30;;;;;;;4.45;99.66;98963.34;4958004;29;20948;-83
2022/01/07 01:31:04;;;;;;;21.83;10.30;;;;;;;6.35;99.35;99296.03;4959376;29;20404;-83
2022/01/07 01:33:30;;;;;;;19.30;9.70;;;;;;;5.01;98.68;99070.38;4942298;29;20212;-83
2022/01/07 01:35:55;;;;;;;21.37;11.10;;;;;;;4.68;98.97;99033.22;4958545;29;20420;-84
2022/01/07 01:38:22;;;;;;;17.57;8.97;;;;;;;4.61;98.41;98998.56;4959910;29;20633;-84
2022/01/07 01:40:47;;;;;;;20.03;9.80;;;;;;;5.05;98.32;99076.44;4958313;29;20631;-84
2022/01/07 01:43:14;;;;;;;16.97;8.77;;;;;;;6.09;98.34;99260.09;4958464;29;20498;-84
2022/01/07 01:45:40;;;;;;;18.33;9.40;;;;;;;6.18;98.50;99276.56;4958565;29;20247;-83
2022/01/07 01:48:06;;;;;;;17.60;8.40;;;;;;;5.69;98.98;99194.91;4958918;29;20180;-84
2022/01/07 01:50:31;;;;;;;18.03;9.03;;;;;;;6.30;99.33;99299.03;4960520;29;20459;-82
2022/01/07 01:52:57;;;;;;;20.40;10.33;;;;;;;5.99;98.22;99237.72;4958769;29;20327;-82
2022/01/07 01:55:26;;;;;;;20.50;9.10;;;;;;;5.49;98.09;99140.16;4959188;29;20179;-83
2022/01/07 01:57:52;;;;;;;18.33;9.17;;;;;;;6.32;98.65;99305.88;4946884;29;20423;-82
2022/01/07 02:00:19;;;;;;;19.63;9.83;;;;;;;5.82;97.96;99194.84;4946407;29;20467;-84
2022/01/07 02:02:45;;;;;;;17.37;8.73;;;;;;;6.37;98.20;99303.66;4959366;29;20416;-83
2022/01/07 02:05:10;;;;;;;13.80;6.77;;;;;;;6.44;97.89;99316.69;4958949;29;20411;-84
2022/01/07 02:07:38;;;;;;;16.67;8.37;;;;;;;5.76;97.87;99196.16;4940967;29;20231;-85
2022/01/07 02:10:14;;;;;;;20.00;9.57;;;;;;;6.18;98.29;99286.63;4957177;28;20188;-84
2022/01/07 02:12:40;;;;;;;15.93;8.50;;;;;;;6.43;98.25;99319.09;4957991;29;20800;-84
2022/01/07 02:15:08;;;;;;;17.50;9.03;;;;;;;6.46;98.08;99317.63;4957530;29;20424;-85
2022/01/07 02:17:35;;;;;;;18.13;7.87;;;;;;;6.05;98.67;99258.16;4940687;29;20428;-84
2022/01/07 02:20:00;;;;;;;19.67;9.70;;;;;;;6.37;98.55;99317.06;4958570;29;20451;-83
2022/01/07 02:22:26;;;;;;;18.30;10.07;;;;;;;6.32;98.69;99322.63;4956103;29;20438;-83
2022/01/07 02:24:53;;;;;;;17.53;8.23;;;;;;;6.12;98.80;99303.88;4958032;29;20235;-83
2022/01/07 02:27:19;;;;;;;15.90;7.90;;;;;;;3.41;99.28;98885.94;4940829;29;20177;-84
2022/01/07 02:29:47;;;;;;;21.70;10.47;;;;;;;5.41;99.41;99218.31;4957819;29;20396;-86
2022/01/07 02:32:14;;;;;;;18.27;8.80;;;;;;;5.96;100.00;99306.22;4957779;29;20416;-84
2022/01/07 02:34:41;;;;;;;20.27;10.17;;;;;;;5.00;99.67;99113.78;4957227;29;20805;-83
2022/01/07 02:37:06;;;;;;;19.97;9.20;;;;;;;4.35;99.27;99009.50;4957313;29;20502;-84
2022/01/07 02:39:32;;;;;;;22.03;10.20;;;;;;;4.59;100.00;99087.81;4956464;29;20559;-85
2022/01/07 02:41:57;;;;;;;21.77;10.83;;;;;;;5.31;99.77;99207.69;4940723;29;20224;-85
2022/01/07 02:44:23;;;;;;;21.20;9.97;;;;;;;6.11;100.00;99364.94;4957495;29;20204;-84
2022/01/07 02:46:49;;;;;;;19.17;9.03;;;;;;;5.63;100.00;99289.13;4959888;29;20181;-85
2022/01/07 02:49:16;;;;;;;21.97;10.03;;;;;;;3.44;100.00;98900.28;4957985;29;20199;-85
2022/01/07 02:51:43;;;;;;;18.17;8.30;;;;;;;6.15;100.00;99351.81;4957852;29;20176;-85
2022/01/07 02:54:09;;;;;;;19.67;8.73;;;;;;;3.77;100.00;98949.94;4940256;29;20420;-82
2022/01/07 02:56:35;;;;;;;19.30;9.27;;;;;;;5.65;99.99;99264.97;4957639;29;20405;-83
2022/01/07 02:59:02;;;;;;;18.03;8.67;;;;;;;4.11;98.76;99016.38;4957249;29;20428;-83
2022/01/07 03:01:27;;;;;;;17.97;9.10;;;;;;;5.91;99.02;99295.91;4957159;29;20848;-84
2022/01/07 03:03:53;;;;;;;19.03;10.10;;;;;;;4.03;99.21;98964.97;4956604;29;20428;-83
2022/01/07 03:06:21;;;;;;;21.00;10.70;;;;;;;6.27;99.45;99356.66;4957274;29;20164;-83
2022/01/07 03:08:48;;;;;;;21.03;10.13;;;;;;;6.14;99.28;99355.09;4941364;29;20168;-84
2022/01/07 03:11:14;;;;;;;19.67;8.80;;;;;;;6.30;99.54;99365.28;4941843;29;20435;-85
2022/01/07 03:13:42;;;;;;;18.20;9.00;;;;;;;3.25;98.79;98854.88;4957289;29;20475;-84
2022/01/07 03:16:09;;;;;;;17.73;7.83;;;;;;;5.27;98.74;99209.94;4957424;29;20169;-83
2022/01/07 03:18:35;;;;;;;21.40;10.77;;;;;;;5.93;98.97;99303.56;4956814;29;20404;-84
2022/01/07 03:21:03;;;;;;;21.83;9.73;;;;;;;6.28;98.88;99381.91;4956378;28;20464;-84
2022/01/07 03:23:29;;;;;;;14.77;7.70;;;;;;;5.16;98.24;99178.31;4957008;29;20153;-82
2022/01/07 03:25:54;;;;;;;17.87;9.30;;;;;;;5.41;98.59;99223.31;4956645;29;20483;-83
2022/01/07 03:28:22;;;;;;;19.27;8.90;;;;;;;4.72;98.11;99105.38;4955318;29;20229;-84
2022/01/07 03:30:48;;;;;;;19.13;8.83;;;;;;;4.94;98.30;99143.53;4954895;29;20179;-84
2022/01/07 03:33:15;;;;;;;17.10;8.33;;;;;;;4.50;97.32;99032.13;4955894;29;20409;-84
2022/01/07 03:35:41;;;;;;;14.40;6.83;;;;;;;6.06;97.61;99323.59;4954921;29;20436;-84
2022/01/07 03:38:08;;;;;;;18.83;8.93;;;;;;;6.01;97.64;99302.38;4957404;29;20396;-83
2022/01/07 03:40:35;;;;;;;18.97;7.70;;;;;;;4.39;97.00;99045.66;4956407;29;20339;-83
2022/01/07 03:43:01;;;;;;;17.27;7.37;;;;;;;6.07;98.09;99347.09;4940296;29;20476;-85
2022/01/07 03:45:27;;;;;;;18.73;8.67;;;;;;;6.01;97.26;99324.09;4957212;29;20941;-83
2022/01/07 03:47:53;;;;;;;20.87;10.50;;;;;;;6.53;97.43;99417.81;4956595;29;20475;-83
2022/01/07 03:50:21;;;;;;;17.37;8.97;;;;;;;6.10;97.69;99372.41;4956501;29;20173;-84
2022/01/07 03:52:48;;;;;;;19.20;8.77;;;;;;;6.43;98.32;99430.59;4956739;29;20408;-84
2022/01/07 03:55:17;;;;;;;20.07;9.43;;;;;;;6.33;98.58;99432.47;4940326;29;20506;-83
2022/01/07 03:57:42;;;;;;;20.97;9.83;;;;;;;5.81;98.84;99340.44;4950914;29;20439;-84
2022/01/07 04:00:11;;;;;;;17.97;9.83;;;;;;;6.25;99.18;99447.09;4958576;29;20472;-83
2022/01/07 04:02:37;;;;;;;21.63;10.87;;;;;;;5.35;98.70;99322.56;4957767;29;20223;-84
2022/01/07 04:05:03;;;;;;;21.07;9.67;;;;;;;4.52;98.66;99139.22;4956928;29;20412;-84
2022/01/07 04:07:31;;;;;;;18.33;8.83;;;;;;;5.43;99.35;99307.97;4955583;29;20790;-84
2022/01/07 04:09:58;;;;;;;20.43;10.00;;;;;;;5.55;99.36;99343.03;4955912;29;20160;-84
2022/01/07 04:12:25;;;;;;;19.17;8.43;;;;;;;6.08;99.54;99431.72;4938916;29;20435;-82
2022/01/07 04:15:00;;;;;;;21.10;9.30;;;;;;;4.52;99.98;99208.53;4955723;29;20448;-84
2022/01/07 04:17:26;;;;;;;21.17;10.33;;;;;;;3.79;100.00;99081.06;4935286;29;20520;-84
2022/01/07 04:19:52;;;;;;;19.17;8.77;;;;;;;4.92;100.00;99285.50;4935218;29;20543;-84
2022/01/07 04:22:18;;;;;;;23.83;10.77;;;;;;;5.11;100.00;99305.94;4935474;29;20721;-84
2022/01/07 04:24:43;;;;;;;16.27;7.70;;;;;;;4.76;100.00;99258.59;4935612;29;20440;-84
2022/01/07 04:27:08;;;;;;;20.03;9.90;;;;;;;5.66;100.00;99398.13;4936831;29;20192;-85
2022/01/07 04:29:34;;;;;;;14.43;7.07;;;;;;;4.06;99.69;99145.47;4936254;29;20227;-84
2022/01/07 04:32:01;;;;;;;21.07;9.83;;;;;;;4.97;99.32;99316.75;4918897;29;20244;-83
2022/01/07 04:34:27;;;;;;;20.03;8.70;;;;;;;4.56;99.12;99230.53;4935190;29;20284;-84
2022/01/07 04:36:52;;;;;;;15.97;7.30;;;;;;;4.23;99.17;99145.66;4936863;29;20973;-84
2022/01/07 04:39:18;;;;;;;21.07;9.60;;;;;;;5.56;99.29;99399.97;4938632;29;20272;-84
2022/01/07 04:41:44;;;;;;;18.10;9.07;;;;;;;5.95;98.91;99462.78;4940736;29;20236;-84
2022/01/07 04:44:09;;;;;;;17.73;8.80;;;;;;;4.15;98.49;99160.19;4942457;29;20477;-83
2022/01/07 04:46:55;;;;;;;17.00;8.13;;;;;;;6.07;98.71;99470.22;4940316;29;20172;-85
2022/01/07 04:49:21;;;;;;;14.63;7.57;;;;;;;5.56;99.18;99425.06;4920825;29;20197;-85
2022/01/07 04:52:09;;;;;;;20.00;10.10;;;;;;;5.01;98.57;99311.16;4903433;29;20432;-83
2022/01/07 04:54:54;;;;;;;19.03;8.27;;;;;;;5.88;98.16;99459.00;4866163;29;20184;-84
2022/01/07 04:57:20;;;;;;;20.07;8.77;;;;;;;6.01;97.76;99468.19;4860794;29;20435;-83
2022/01/07 04:59:45;;;;;;;19.47;9.20;;;;;;;5.75;98.08;99446.44;4859816;29;20223;-84
2022/01/07 05:02:10;;;;;;;17.60;8.70;;;;;;;4.92;98.28;99324.75;4844684;29;20303;-85
2022/01/07 05:04:36;;;;;;;17.90;8.17;;;;;;;3.14;98.35;99038.34;4860050;29;20629;-84
2022/01/07 05:07:01;;;;;;;13.47;6.80;;;;;;;5.73;98.55;99502.38;4860558;29;20195;-84
2022/01/07 05:09:27;;;;;;;18.83;9.07;;;;;;;5.93;97.82;99495.34;4860392;29;20310;-84
2022/01/07 05:11:53;;;;;;;16.77;8.10;;;;;;;5.94;98.41;99513.78;4844010;29;20192;-84
2022/01/07 05:14:19;;;;;;;20.07;10.10;;;;;;;5.81;98.47;99504.59;4860312;29;20198;-85
2022/01/07 05:16:45;;;;;;;20.50;9.33;;;;;;;5.83;99.03;99524.78;4844525;29;20196;-84
2022/01/07 05:19:16;;;;;;;17.53;8.83;;;;;;;5.87;99.04;99515.06;4859794;29;20685;-83
2022/01/07 05:21:42;;;;;;;23.10;11.67;;;;;;;5.89;98.35;99525.19;4860071;29;20429;-84
2022/01/07 05:24:08;;;;;;;15.23;7.57;;;;;;;4.96;99.31;99385.25;4859630;29;20427;-83
2022/01/07 05:26:33;;;;;;;27.70;13.33;;;;;;;5.38;100.00;99484.16;4870733;29;20433;-83
2022/01/07 05:28:59;;;;;;;27.80;11.47;;;;;;;4.85;99.92;99406.25;4898566;29;20182;-84
2022/01/07 05:31:24;;;;;;;15.57;7.40;;;;;;;4.91;100.00;99416.69;4898229;29;20572;-84
2022/01/07 05:33:51;;;;;;;21.27;8.53;;;;;;;3.50;99.79;99153.38;4882524;29;20214;-86
2022/01/07 05:36:17;;;;;;;53.83;21.50;;;;;;;3.78;99.77;99217.03;4899306;29;20190;-84
2022/01/07 05:38:46;;;;;;;19.43;9.77;;;;;;;5.68;99.87;99546.41;4899584;29;20438;-82
2022/01/07 05:41:11;;;;;;;22.97;10.10;;;;;;;5.06;99.68;99432.75;4897036;29;20478;-86
2022/01/07 05:43:39;;;;;;;21.73;9.40;;;;;;;5.25;99.52;99453.25;4900877;29;20490;-85
2022/01/07 05:46:04;;;;;;;24.67;11.23;;;;;;;3.15;98.60;99098.50;4937693;29;20180;-84
2022/01/07 05:48:30;;;;;;;18.63;10.03;;;;;;;5.74;99.12;99540.13;4937880;29;20425;-84
2022/01/07 05:50:55;;;;;;;23.53;10.93;;;;;;;5.88;98.54;99568.66;4940026;29;20185;-84
2022/01/07 05:53:21;;;;;;;23.77;9.17;;;;;;;5.22;98.01;99450.53;4940500;29;20244;-84
2022/01/07 05:55:46;;;;;;;18.00;9.00;;;;;;;5.79;97.78;99568.94;4940885;29;20264;-84
2022/01/07 05:58:12;;;;;;;29.90;12.63;;;;;;;4.24;97.87;99277.66;4946748;29;20157;-84
2022/01/07 06:00:44;;;;;;;25.67;12.57;;;;;;;4.28;97.46;99267.09;4942846;29;20224;-84
2022/01/07 06:03:10;;;;;;;21.73;9.77;;;;;;;5.93;98.06;99594.97;4942963;29;20500;-84
2022/01/07 06:05:35;;;;;;;17.50;8.30;;;;;;;5.13;97.90;99432.38;4942199;29;20398;-85
2022/01/07 06:08:01;;;;;;;19.90;11.17;;;;;;;4.44;97.30;99324.94;4928824;29;20196;-85
2022/01/07 06:10:26;;;;;;;18.50;9.20;;;;;;;4.48;96.98;99335.28;4941944;29;20325;-84
2022/01/07 06:12:52;;;;;;;18.60;8.63;;;;;;;3.08;97.12;99083.00;4948531;29;20207;-84
2022/01/07 06:15:18;;;;;;;17.13;7.67;;;;;;;5.80;96.97;99578.19;4948242;29;20166;-83
2022/01/07 06:18:07;;;;;;;20.60;9.77;;;;;;;5.79;97.79;99573.97;4952840;29;20425;-84
2022/01/07 06:20:34;;;;;;;27.33;12.83;;;;;;;3.41;97.00;99195.28;4942083;29;20325;-83
2022/01/07 06:22:59;;;;;;;51.63;24.93;;;;;;;3.05;96.86;99118.63;4926792;29;20429;-84
2022/01/07 06:26:15;;;;;;;34.23;15.07;;;;;;;5.86;97.29;99583.66;4930769;29;20249;-82
2022/01/07 06:29:02;;;;;;;23.83;10.80;;;;;;;5.92;96.88;99575.66;4891866;29;20234;-83
2022/01/07 06:31:32;;;;;;;30.00;15.57;;;;;;;6.07;96.55;99581.63;4889096;29;20412;-84
2022/01/07 06:33:58;;;;;;;18.33;9.50;;;;;;;4.07;97.01;99257.38;4835748;29;20424;-85
2022/01/07 06:36:25;;;;;;;21.27;11.47;;;;;;;5.57;97.14;99505.53;4864394;29;20535;-83
2022/01/07 06:38:50;;;;;;;27.03;14.00;;;;;;;4.05;96.52;99246.41;4885267;29;20428;-84
2022/01/07 06:41:18;;;;;;;33.10;18.10;;;;;;;6.14;96.56;99606.41;4874962;29;20527;-83
2022/01/07 06:44:15;;;;;;;21.20;10.07;;;;;;;5.10;97.03;99457.28;4845189;29;20232;-87
2022/01/07 06:46:47;;;;;;;31.97;14.77;;;;;;;6.09;96.03;99607.75;4860206;29;20556;-85
2022/01/07 06:49:17;;;;;;;17.80;7.93;;;;;;;5.84;96.25;99571.75;4852102;29;20521;-84
2022/01/07 06:51:43;;;;;;;18.77;9.47;;;;;;;6.19;96.00;99612.59;4832129;29;20471;-84
2022/01/07 06:54:11;;;;;;;32.33;20.47;;;;;;;6.22;95.81;99602.72;4810895;29;20434;-84
2022/01/07 06:56:41;;;;;;;27.97;13.00;;;;;;;6.24;95.54;99603.69;4824195;29;20189;-85
2022/01/07 06:59:07;;;;;;;23.40;12.47;;;;;;;5.57;95.36;99479.56;4839926;29;20904;-84
2022/01/07 07:01:32;;;;;;;24.13;12.37;;;;;;;5.03;95.04;99384.00;4867154;29;20540;-84
2022/01/07 07:03:58;;;;;;;26.30;13.27;;;;;;;5.73;94.94;99485.66;4872613;29;20219;-86
2022/01/07 07:06:24;;;;;;;25.80;10.80;;;;;;;4.58;94.76;99289.13;4863785;29;20201;-83
2022/01/07 07:08:50;;;;;;;22.53;11.50;;;;;;;6.01;95.02;99557.78;4861862;29;20719;-84
2022/01/07 07:11:16;;;;;;;28.17;12.30;;;;;;;6.38;95.73;99586.97;4861500;29;20417;-84
2022/01/07 07:13:41;;;;;;;30.47;15.00;;;;;;;4.92;94.21;99288.00;4863323;29;20183;-84
2022/01/07 07:16:07;;;;;;;31.47;14.83;;;;;;;6.73;93.31;99601.75;4882471;29;20262;-84
2022/01/07 07:18:32;;;;;;;27.20;12.73;;;;;;;6.70;94.09;99604.06;4880705;29;20338;-84
2022/01/07 07:20:58;;;;;;;32.50;16.33;;;;;;;6.92;93.65;99619.72;4881849;29;20221;-85
2022/01/07 07:23:24;;;;;;;35.83;20.47;;;;;;;7.06;92.33;99607.16;4882017;29;20194;-86
2022/01/07 07:25:51;;;;;;;36.77;16.57;;;;;;;6.53;92.38;99509.97;4898033;29;20186;-85
2022/01/07 07:28:18;;;;;;;65.83;28.80;;;;;;;5.07;93.17;99270.53;4883503;29;20434;-83
2022/01/07 07:30:47;;;;;;;55.30;25.97;;;;;;;6.30;94.11;99521.13;4897753;29;20467;-85
2022/01/07 07:38:34;;;;;;;33.00;15.00;;;;;;;6.48;95.00;99595.19;4937731;29;20443;-84
2022/01/07 07:40:59;;;;;;;28.47;14.67;;;;;;;6.02;94.27;99497.56;4937524;29;20496;-86
2022/01/07 07:43:25;;;;;;;39.27;17.97;;;;;;;5.60;94.92;99450.50;4920194;29;20240;-87
2022/01/07 07:45:50;;;;;;;27.13;13.63;;;;;;;6.01;94.94;99545.22;4920205;29;20690;-85
2022/01/07 07:48:17;;;;;;;28.50;13.47;;;;;;;6.61;95.29;99621.09;4937137;29;20678;-83
2022/01/07 07:50:42;;;;;;;27.83;13.57;;;;;;;3.20;94.52;99003.75;4919811;29;20444;-86
2022/01/07 07:53:08;;;;;;;23.47;11.83;;;;;;;6.10;94.77;99511.47;4936739;29;20189;-84
2022/01/07 07:55:33;;;;;;;27.20;12.63;;;;;;;6.62;94.90;99580.09;4919331;29;20190;-85
2022/01/07 07:57:58;;;;;;;27.93;13.20;;;;;;;5.86;93.96;99437.97;4936829;29;20677;-85
2022/01/07 08:00:25;;;;;;;25.43;12.60;;;;;;;5.33;92.67;99315.69;4937270;29;20756;-85
2022/01/07 08:02:52;;;;;;;34.97;16.80;;;;;;;6.11;92.45;99420.25;4919584;29;20185;-85
2022/01/07 08:05:17;;;;;;;24.83;13.20;;;;;;;6.95;91.90;99582.16;4919377;29;20907;-86
2022/01/07 08:07:43;;;;;;;44.77;22.07;;;;;;;7.08;91.14;99552.78;4918965;29;20528;-86
2022/01/07 08:10:09;;;;;;;47.93;21.97;;;;;;;7.34;91.11;99621.41;4934949;29;20692;-84
2022/01/07 08:13:14;;;;;;;54.10;23.37;;;;;;;5.84;89.68;99282.88;4919747;29;20212;-84
2022/01/07 08:18:25;;;;;;;36.33;18.50;;;;;;;7.36;89.05;99525.03;4941905;29;20715;-84
2022/01/07 08:20:52;;;;;;;23.20;12.33;;;;;;;6.95;89.17;99473.94;4948882;29;20201;-84
2022/01/07 08:23:18;;;;;;;24.17;11.00;;;;;;;7.80;88.91;99619.97;4929380;29;20335;-84
2022/01/07 08:25:44;;;;;;;19.23;10.53;;;;;;;7.38;89.23;99573.84;4930291;29;20185;-83
2022/01/07 08:28:12;;;;;;;17.03;8.67;;;;;;;7.75;87.70;99613.78;4940654;29;20177;-83
2022/01/07 08:30:58;;;;;;;21.10;10.97;;;;;;;6.92;87.60;99441.06;4920567;29;20192;-83
2022/01/07 08:36:07;;;;;;;21.80;11.07;;;;;;;8.04;86.97;99554.16;4938593;29;20248;-84
2022/01/07 08:38:34;;;;;;;19.30;10.57;;;;;;;8.23;87.11;99619.09;4953226;29;20193;-83
2022/01/07 08:41:00;;;;;;;37.57;19.50;;;;;;;5.24;87.60;99140.34;4956172;29;20255;-83
2022/01/07 08:43:26;;;;;;;34.30;18.00;;;;;;;8.40;86.78;99603.28;4955365;29;20254;-85
2022/01/07 08:45:51;;;;;;;31.50;16.47;;;;;;;8.52;86.68;99628.28;4938606;29;20196;-85
2022/01/07 08:48:17;;;;;;;33.63;16.90;;;;;;;6.73;86.01;99305.75;4954314;29;20180;-82
2022/01/07 08:50:44;;;;;;;54.80;24.03;;;;;;;8.67;85.86;99617.41;4955629;29;20232;-84
2022/01/07 08:53:10;;;;;;;35.33;19.13;;;;;;;6.46;85.06;99203.59;4955535;29;20160;-84
2022/01/07 08:55:36;;;;;;;45.23;23.13;;;;;;;7.57;83.83;99400.31;4938040;29;20204;-84
2022/01/07 08:58:02;;;;;;;22.27;12.10;;;;;;;8.43;86.13;99615.19;4953795;29;20295;-84
2022/01/07 09:00:27;;;;;;;25.30;14.83;;;;;;;8.53;85.23;99603.16;4938130;29;20231;-83
2022/01/07 09:02:53;;;;;;;28.57;16.83;;;;;;;8.52;85.67;99611.50;4953905;29;20692;-85
2022/01/07 09:05:19;;;;;;;24.80;12.73;;;;;;;9.03;84.80;99605.00;4955272;29;20204;-84
2022/01/07 09:07:44;;;;;;;20.17;11.00;;;;;;;8.64;84.21;99540.66;4955178;29;20618;-85
2022/01/07 09:10:10;;;;;;;23.50;11.40;;;;;;;8.52;84.69;99532.41;4946005;29;20161;-83
2022/01/07 09:12:37;;;;;;;22.53;11.30;;;;;;;8.57;84.63;99518.41;4945307;29;20264;-84
2022/01/07 09:15:03;;;;;;;19.80;9.70;;;;;;;8.33;83.19;99454.91;4950904;29;20204;-84
2022/01/07 09:17:30;;;;;;;18.47;10.53;;;;;;;9.22;82.54;99584.97;4955145;29;20515;-85
2022/01/07 09:19:56;;;;;;;23.00;12.73;;;;;;;7.51;81.06;99258.94;4941198;29;20204;-85
2022/01/07 09:22:22;;;;;;;39.60;19.53;;;;;;;9.46;81.74;99608.97;4960336;29;20211;-84
2022/01/07 09:24:48;;;;;;;21.37;11.17;;;;;;;8.76;81.58;99484.09;4942443;29;20661;-83
2022/01/07 09:27:13;;;;;;;22.77;10.97;;;;;;;8.22;80.57;99365.16;4960689;29;20195;-84
2022/01/07 09:29:39;;;;;;;21.77;12.43;;;;;;;8.46;81.66;99444.66;4959919;29;20732;-85
2022/01/07 09:32:05;;;;;;;30.67;15.03;;;;;;;8.35;80.15;99346.53;4957692;29;20321;-83
2022/01/07 09:34:32;;;;;;;18.80;9.97;;;;;;;7.81;80.12;99304.16;4958710;29;20259;-84
2022/01/07 09:36:58;;;;;;;21.43;11.67;;;;;;;6.47;80.58;99070.44;4941381;29;20244;-85
2022/01/07 09:39:23;;;;;;;39.93;17.93;;;;;;;8.04;79.32;99297.03;4964839;29;20681;-84
2022/01/07 09:41:49;;;;;;;42.27;21.30;;;;;;;9.31;79.41;99497.88;4966288;29;20169;-85
2022/01/07 09:44:14;;;;;;;21.70;11.60;;;;;;;9.32;78.56;99524.88;4946647;29;20281;-87
2022/01/07 09:46:43;;;;;;;20.63;11.60;;;;;;;9.69;80.21;99582.31;4960928;29;20181;-85
2022/01/07 09:49:09;;;;;;;22.97;12.63;;;;;;;6.74;80.19;99153.19;4943212;29;20161;-85
2022/01/07 09:51:39;;;;;;;41.30;20.27;;;;;;;9.79;79.69;99576.91;4957345;29;20192;-86
2022/01/07 09:54:06;;;;;;;39.67;19.73;;;;;;;9.79;77.95;99534.81;4941025;29;20677;-85
2022/01/07 09:56:33;;;;;;;26.17;13.33;;;;;;;9.29;78.82;99493.53;4941190;29;20192;-83
2022/01/07 09:59:04;;;;;;;30.50;16.53;;;;;;;8.90;78.52;99331.69;4958224;29;20202;-83
2022/01/07 10:01:52;;;;;;;54.03;33.23;;;;;;;10.46;77.44;99576.00;4958447;29;20196;-83
2022/01/07 10:04:32;;;;;;;30.57;18.73;;;;;;;10.15;78.03;99523.09;4902744;29;20580;-82
2022/01/07 10:07:26;;;;;;;31.63;16.50;;;;;;;10.25;78.17;99574.97;4918586;29;20294;-84
2022/01/07 10:10:26;;;;;;;42.10;18.60;;;;;;;9.60;78.74;99506.91;4918445;29;20742;-85
2022/01/07 10:12:55;;;;;;;23.83;12.40;;;;;;;9.91;79.06;99583.47;4915323;29;20198;-84
2022/01/07 10:15:23;;;;;;;16.33;9.33;;;;;;;6.66;78.87;99057.22;4899991;29;20270;-84
2022/01/07 10:17:58;;;;;;;18.53;7.97;;;;;;;9.10;79.53;99479.13;4900343;29;20659;-84
2022/01/07 10:20:29;;;;;;;24.27;13.30;;;;;;;8.16;80.08;99358.16;4899609;29;20214;-87
2022/01/07 10:23:00;;;;;;;30.90;19.20;;;;;;;8.03;80.03;99310.41;4883957;29;20342;-84
2022/01/07 10:25:32;;;;;;;17.20;9.43;;;;;;;8.20;79.60;99321.34;4899632;29;20186;-83
2022/01/07 10:28:03;;;;;;;19.80;10.30;;;;;;;9.23;79.91;99500.84;4899688;29;20286;-83
2022/01/07 10:30:41;;;;;;;17.27;9.77;;;;;;;9.86;79.14;99563.81;4899525;29;20707;-85
2022/01/07 10:33:36;;;;;;;28.60;19.53;;;;;;;6.63;79.14;98996.69;4882766;29;20190;-84
2022/01/07 10:36:07;;;;;;;24.93;14.40;;;;;;;9.73;80.30;99558.91;4865373;29;20195;-84
2022/01/07 10:38:34;;;;;;;25.73;14.87;;;;;;;9.83;79.68;99516.44;4880173;29;20195;-84
2022/01/07 10:41:00;;;;;;;18.77;10.07;;;;;;;9.79;79.59;99549.97;4864266;29;20239;-84
2022/01/07 10:43:36;;;;;;;23.03;11.80;;;;;;;9.11;79.91;99443.00;4886288;29;20219;-86
2022/01/07 10:46:13;;;;;;;20.97;12.23;;;;;;;10.03;79.68;99556.22;4894855;29;20250;-83
2022/01/07 10:48:39;;;;;;;26.20;14.97;;;;;;;10.29;78.88;99539.78;4898190;29;20687;-85
2022/01/07 10:51:15;;;;;;;43.60;20.43;;;;;;;10.50;78.26;99542.44;4898711;29;20167;-86
2022/01/07 10:53:46;;;;;;;35.47;17.87;;;;;;;9.83;78.63;99440.59;4899693;29;20544;-84
2022/01/07 10:56:20;;;;;;;20.43;11.70;;;;;;;8.70;79.65;99312.22;4883381;29;20644;-87
2022/01/07 10:59:06;;;;;;;22.73;13.27;;;;;;;8.12;79.38;99227.69;4880389;29;20198;-84
2022/01/07 11:01:55;;;;;;;34.87;17.97;;;;;;;10.44;78.95;99547.22;4879944;29;20242;-83
2022/01/07 11:04:26;;;;;;;27.13;14.43;;;;;;;10.59;78.31;99550.47;4860905;29;20230;-84
2022/01/07 11:06:55;;;;;;;30.67;15.93;;;;;;;10.55;78.40;99549.44;4860984;29;20267;-84
2022/01/07 11:09:20;;;;;;;142.10;41.70;;;;;;;10.75;77.72;99547.81;4860921;29;20336;-84
2022/01/07 11:11:54;;;;;;;39.43;21.97;;;;;;;10.76;77.60;99551.22;4847849;29;20644;-84
2022/01/07 11:14:23;;;;;;;251.30;48.30;;;;;;;9.85;77.23;99388.47;4880430;29;20171;-83
2022/01/07 11:16:49;;;;;;;87.43;27.90;;;;;;;9.33;76.77;99261.38;4879762;29;20211;-85
2022/01/07 11:19:20;;;;;;;34.70;19.63;;;;;;;10.52;76.81;99477.59;4879647;29;20176;-83
2022/01/07 11:21:52;;;;;;;23.37;14.70;;;;;;;10.47;77.54;99524.56;4879402;29;20222;-84
2022/01/07 11:24:35;;;;;;;19.13;11.37;;;;;;;10.37;78.04;99476.88;4864501;29;20227;-85
2022/01/07 11:27:11;;;;;;;21.97;13.00;;;;;;;10.71;77.11;99485.19;4879126;29;20222;-85
2022/01/07 11:29:39;;;;;;;18.40;11.70;;;;;;;10.85;76.33;99496.78;4863266;29;20680;-84
2022/01/07 11:32:40;;;;;;;21.13;13.90;;;;;;;11.00;76.22;99540.53;4890888;29;20204;-82
2022/01/07 11:35:18;;;;;;;28.67;16.57;;;;;;;10.96;76.97;99542.88;4878500;29;20225;-84
2022/01/07 11:37:59;;;;;;;39.60;22.93;;;;;;;11.14;76.22;99541.13;4887993;29;20190;-84
2022/01/07 11:40:33;;;;;;;22.53;13.67;;;;;;;11.14;76.07;99542.00;4884113;29;20293;-85
2022/01/07 11:43:04;;;;;;;22.43;14.67;;;;;;;11.16;76.14;99535.31;4901003;29;20230;-86